Aérodrome :
LOGIN :

S'inscrire | Disclaimer

   EN    FR    IT 

 










Légende :    VFR   VFR Marginal   IFR   IFR Intensif   IFR Très Intensif
Visi : 
Plafond : 
>= 8 km
>= 3000ft
5 à 8 km
1000 à 3000 ft
1500m à 5 km
500 à 1000 ft
800 à 1500m
200 à 500 ft
< 800m
< 200 ft
Symboles :   Orages  Brouillard  Fortes neiges  Fortes précipitations  Vent > 20 kt
SIGMETs :   Divers  Orages  Givrage  Turbulence  Onde Orograph.  Cendres Volcan.







- Altitude de l'aérodrome : 870 ft
- Code IATA : ETZ
- Voir les cartes d'approche


LFJL - Metz Nancy Lorraine

DERNIER METAR :
  • 291230Z AUTO 24010KT 210V280 CAVOK 17/04 Q1027 NOSIG

METARs EXPIRÉS :
  • 291200Z AUTO 26009KT 230V310 CAVOK 17/05 Q1028 NOSIG
  • 291130Z AUTO 25009KT 220V280 9999 FEW045 17/05 Q1028 NOSIG
  • 291100Z AUTO 24009KT 210V290 9999 SCT043 16/05 Q1028 NOSIG
  • 291030Z AUTO 25012KT 220V280 CAVOK 16/05 Q1028 NOSIG
  • 291000Z AUTO 25009KT 220V280 CAVOK 16/05 Q1028 NOSIG

TAF TAF LFJL
Valide du 29 à 12h jusqu'au 30 à 12h UTC


291100Z 2912/3012 26008KT 9999 FEW040
BECMG 2919/2921 VRB02KT
BECMG 3002/3004 12005KT
Pas de NOTAMs connus pour ce terrain.



MET'MAP, la Météo Aéronautique d'un coup d'oeil ! - Copyright ORBIFLY Décembre 2007 - Disclaimer

ORBIFLY MET'MAP TEAM :

Programmation & Développement : Alexandra Zaïnal
Conception & Développement : Baudouin d'Aumeries
Co-Programmation & Développement : Marc-Olivier Méhu
Soutien technique & logistique : Manuel Goepfert

Contact : metmap@orbifly.com




SOURCES & CREDITS :

   NOAA